Estación meteorológica de Montseny - Vallcàrquera (Vallès Oriental, Parc Natural del Montseny)

Consulta los datos en tiempo real de la estación meteorológica de Montseny - Vallcàrquera





Hora UTC 10:25
Temperatura 30.2 ºC
Humedad 34.7 %
Pluja 0.0 mm
Velocidad viento 3.5 km/h
Dirección viento ENE
Radiación solar 762.7 W/m²

Datos diarios 2026-09-03



Hora UTC (invierno +1h; verano +2h)
Temperatura (ºC) Humedad (%) Velocidad viento (km/h) Precipitación (mm) Radiación solar (W/m²)
Hora UTC Aire Humedad Vel. Dir. Vel. Max Dir. Intent. máx 5 min. Rad. Sol.
00:05 19.1 73.6 1.1 NNE 1.1 NE 0.0 0.0
00:10 19.1 73.6 1.1 NE 2.5 E 0.0 0.0
00:15 18.9 74.9 2.1 NE 4.6 ENE 0.0 0.0
00:20 19.1 73.6 2.2 NE 3.9 NE 0.0 0.0
00:25 19.3 72.6 1.6 N 3.5 NNE 0.0 0.0
00:30 19.2 72.7 1.1 N 2.1 N 0.0 0.0
00:35 19.1 73.3 1.0 N 2.5 N 0.0 0.0
00:40 19.0 74.0 0.8 NNE 2.1 N 0.0 0.0
00:45 19.0 74.1 1.3 NNE 2.8 NNE 0.0 0.0
00:50 19.0 74.0 0.7 N 2.5 N 0.0 0.0
00:55 18.9 74.4 1.2 NNE 2.1 N 0.0 0.0
01:00 18.9 74.4 1.0 NE 2.8 ENE 0.0 0.0
01:05 18.6 75.5 2.2 ENE 3.2 ENE 0.0 0.0
01:10 18.4 76.3 2.3 ENE 4.9 ENE 0.0 0.0
01:15 18.5 75.9 1.3 NNE 3.2 NE 0.0 0.0
01:20 18.6 75.7 0.5 NE 1.4 NE 0.0 0.0
01:25 18.7 75.1 1.5 NE 3.2 ENE 0.0 0.0
01:30 18.6 75.4 2.4 NE 4.2 ENE 0.0 0.0
01:35 18.4 76.1 3.3 ENE 5.6 ENE 0.0 0.0
01:40 18.2 76.7 4.0 ENE 6.0 ENE 0.0 0.0
01:45 18.4 75.7 2.5 NE 4.6 NE 0.0 0.0
01:50 18.4 75.7 0.5 N 1.8 N 0.0 0.0
01:55 18.3 76.0 1.9 NE 3.2 NE 0.0 0.0
02:00 18.3 76.1 1.8 NNE 4.6 ENE 0.0 0.0
02:05 18.2 76.4 2.3 NE 3.9 ENE 0.0 0.0
02:10 18.0 77.1 3.7 ENE 4.9 ENE 0.0 0.0
02:15 18.0 77.4 3.7 ENE 5.6 E 0.0 0.0
02:20 18.1 76.8 2.4 NE 4.2 NE 0.0 0.0
02:25 18.0 77.2 2.1 NE 3.9 NE 0.0 0.0
02:30 18.2 76.4 2.7 NE 4.6 ENE 0.0 0.0
02:35 18.2 76.3 1.7 NE 3.2 ENE 0.0 0.0
02:40 17.9 77.8 3.3 ENE 4.9 ENE 0.0 0.0
02:45 17.8 78.2 3.5 ENE 5.3 ENE 0.0 0.0
02:50 17.9 77.8 3.7 ENE 5.6 NE 0.0 0.0
02:55 18.1 77.2 1.9 NE 4.9 ENE 0.0 0.0
03:00 18.0 77.5 2.7 ENE 4.6 ENE 0.0 0.0
03:05 17.9 78.0 2.5 NE 4.6 ENE 0.0 0.0
03:10 17.8 78.3 3.2 NE 5.3 NE 0.0 0.0
03:15 17.9 78.2 2.5 NE 4.6 ENE 0.0 0.0
03:20 17.8 78.4 2.7 NE 5.6 ENE 0.0 0.0
03:25 18.0 77.6 2.0 NE 3.9 NE 0.0 0.0
03:30 17.9 78.1 3.5 ENE 6.4 ENE 0.0 0.0
03:35 17.9 77.9 3.3 ENE 5.3 ENE 0.0 0.0
03:40 17.8 78.5 3.2 ENE 5.3 E 0.0 0.0
03:45 17.8 78.0 3.9 ENE 6.4 ENE 0.0 0.0
03:50 18.0 77.1 3.0 NE 5.6 ENE 0.0 0.0
03:55 17.9 78.0 2.5 NE 4.6 ENE 0.0 0.0
04:00 17.7 78.6 2.2 NE 3.9 ENE 0.0 0.0
04:05 17.8 78.3 1.5 NE 3.9 ENE 0.0 0.0
04:10 18.0 77.1 1.5 NE 3.2 E 0.0 0.0
04:15 18.0 76.9 1.5 NNE 2.8 NE 0.0 0.0
04:20 17.9 77.4 1.6 NE 2.8 ENE 0.0 0.0
04:25 17.8 77.9 1.2 NNE 3.2 NE 0.0 0.0
04:30 17.9 77.4 1.6 NNE 4.2 ENE 0.0 0.0
04:35 17.9 77.4 0.9 NE 2.5 N 0.0 0.0
04:40 17.8 77.5 0.8 NE 2.5 NE 0.0 0.0
04:45 17.8 77.7 1.3 NE 2.8 N 0.0 0.0
04:50 17.7 77.6 0.8 NNE 2.5 N 0.0 0.0
04:55 17.8 77.2 1.0 N 2.1 N 0.0 0.0
05:00 17.6 78.0 0.7 NNE 2.1 N 0.0 0.0
05:05 17.7 77.8 1.9 NNE 4.2 NE 0.0 0.0
05:10 17.8 77.0 1.0 N 1.8 N 0.0 0.0
05:15 17.8 77.2 0.8 NE 2.5 N 0.0 0.7
05:20 17.7 77.3 1.1 N 2.1 N 0.0 1.6
05:25 17.7 76.9 0.5 N 1.8 NE 0.0 4.0
05:30 17.6 77.8 1.1 NNE 2.1 NE 0.0 6.0
05:35 17.6 77.6 0.8 N 2.1 N 0.0 8.9
05:40 17.5 78.3 0.6 NNE 2.1 N 0.0 10.9
05:45 17.5 78.1 0.8 NNE 1.8 NNE 0.0 14.5
05:50 17.7 77.5 0.7 NNE 1.8 N 0.0 17.1
05:55 17.7 77.7 0.6 NE 2.1 NE 0.0 19.3
06:00 17.7 77.5 0.6 NNE 1.8 NNE 0.0 22.0
06:05 17.8 77.5 0.6 NNE 1.8 N 0.0 24.3
06:10 17.8 77.1 1.2 N 2.1 N 0.0 27.1
06:15 17.8 77.5 1.4 NE 2.5 ENE 0.0 29.0
06:20 17.9 77.6 1.0 NNE 2.1 ENE 0.0 31.8
06:25 18.0 77.2 1.4 NNE 2.8 NE 0.0 34.8
06:30 18.1 76.8 0.9 NE 2.1 ENE 0.0 42.8
06:35 18.3 76.5 3.1 ENE 4.6 ENE 0.0 155.9
06:40 18.9 73.8 3.6 ENE 4.9 ENE 0.0 182.1
06:45 19.4 71.5 3.5 ENE 4.6 ENE 0.0 197.7
06:50 19.8 69.9 3.2 ENE 4.9 ENE 0.0 213.9
06:55 20.2 68.3 3.8 ENE 4.9 E 0.0 230.2
07:00 20.5 66.8 4.0 ENE 6.0 E 0.0 233.5
07:05 21.3 65.1 1.8 E 3.5 ENE 0.0 264.7
07:10 22.1 63.7 0.8 E 3.2 E 0.0 280.8
07:15 23.1 60.5 1.4 E 3.2 ESE 0.0 296.9
07:20 22.8 59.1 2.4 E 4.2 ENE 0.0 312.6
07:25 23.1 58.8 1.8 E 3.2 E 0.0 329.4
07:30 23.9 57.5 0.8 E 3.2 ENE 0.0 346.1
07:35 24.4 54.9 2.0 E 3.5 NE 0.0 361.5
07:40 24.5 54.7 0.9 ESE 2.8 SE 0.0 376.8
07:45 24.9 53.7 1.5 SE 3.2 SE 0.0 392.0
07:50 24.6 55.2 2.1 SSE 4.6 SSE 0.0 407.3
07:55 24.6 54.5 1.3 SSE 3.5 SSE 0.0 423.8
08:00 25.6 51.8 0.8 SSE 2.8 ESE 0.0 439.8
08:05 26.2 50.3 1.5 SSE 3.5 SSE 0.0 455.3
08:10 26.4 49.7 2.0 S 4.2 SSE 0.0 469.1
08:15 26.3 49.3 1.6 S 3.5 S 0.0 483.3
08:20 26.6 48.6 2.4 SSE 4.6 SSE 0.0 497.9
08:25 27.2 46.8 1.5 S 4.6 S 0.0 513.4
08:30 27.7 46.0 1.8 SSE 4.9 SSW 0.0 526.5
08:35 27.9 45.2 2.2 SSE 5.3 SSW 0.0 540.1
08:40 28.9 41.1 1.5 E 5.3 SE 0.0 552.8
08:45 29.4 39.9 3.1 SE 6.7 ESE 0.0 565.6
08:50 29.6 37.8 2.6 ESE 6.7 SE 0.0 578.8
08:55 29.8 36.6 2.4 SE 6.4 SSE 0.0 590.2
09:00 29.9 34.8 1.9 NNW 5.3 WNW 0.0 599.9
09:05 29.8 35.4 2.6 E 6.0 ENE 0.0 611.8
09:10 30.0 34.9 3.4 ESE 8.1 E 0.0 624.2
09:15 29.6 34.8 4.6 ENE 8.1 ENE 0.0 634.8
09:20 29.1 36.2 3.9 ENE 11.3 ENE 0.0 644.5
09:25 29.0 37.8 3.0 NE 6.7 E 0.0 656.7
09:30 29.8 36.5 3.1 SE 7.4 ESE 0.0 667.8
09:35 29.5 37.3 3.8 ESE 9.5 WNW 0.0 677.4
09:40 29.4 37.3 3.5 E 7.8 ESE 0.0 687.9
09:45 29.7 36.6 2.8 E 7.1 ENE 0.0 698.3
09:50 30.5 35.2 3.7 SSW 7.1 S 0.0 708.7
09:55 30.3 34.9 3.2 S 6.4 SE 0.0 714.6
10:00 30.1 35.0 3.0 SSE 8.1 S 0.0 721.3
10:05 30.2 34.3 4.4 E 13.4 SW 0.0 730.7
10:10 29.9 35.0 4.3 ENE 9.9 E 0.0 741.1
10:15 30.0 34.8 5.1 E 11.3 ESE 0.0 749.1
10:20 29.6 35.4 4.0 E 9.2 SW 0.0 756.7
10:25 30.2 34.7 3.5 ENE 11.3 E 0.0 762.7
Máxima 30.5 78.6 5.1 E 13.4 SW 0.0 762.7
Mínima 17.5 34.3
Total 0.0